This is the latest recevied weather packets stored in our database for station/object KAGO. If no packets are shown the sender has not sent any weather packets the latest 1 day(s).
| Time | Temp. | Humidity | Pressure | Rain* | Wind** | Luminosity | Snow |
|---|---|---|---|---|---|---|---|
| 1778007808 | 25.56° C | 74% | 1006.4 hPa | - | 6.71 m/s, 200° | - | - |
| 1778007207 | 25° C | 73% | 1006.8 hPa | - | 6.71 m/s, 230° | - | - |
| 1778006606 | 25° C | 73% | 1006.8 hPa | - | 6.71 m/s, 230° | - | - |
| 1778006009 | 25° C | 73% | 1006.4 hPa | - | 4.47 m/s, 200° | - | - |
| 1778005407 | 25° C | 73% | 1006.4 hPa | - | 4.47 m/s, 200° | - | - |
| 1778004805 | 23.89° C | 78% | 1006.8 hPa | - | 4.92 m/s, 200° | - | - |
| 1778004207 | 23.89° C | 78% | 1006.8 hPa | - | 4.92 m/s, 200° | - | - |
| 1778003606 | 22.78° C | 83% | 1006.8 hPa | - | 3.58 m/s, 180° | - | - |
| 1778003001 | 22.78° C | 83% | 1006.8 hPa | - | 3.58 m/s, 180° | - | - |
| 1778002404 | 22.78° C | 83% | 1007.1 hPa | - | 5.36 m/s, 200° | - | - |
| 1778001803 | 22.78° C | 83% | 1007.1 hPa | - | 5.36 m/s, 200° | - | - |
| 1778001209 | 21.67° C | 88% | 1006.8 hPa | - | 4.47 m/s, 190° | - | - |
| 1778000607 | 21.67° C | 88% | 1006.8 hPa | - | 4.47 m/s, 190° | - | - |
| 1778000006 | 20.56° C | 94% | 1007.1 hPa | - | 4.92 m/s, 180° | - | - |
| 1777999408 | 20.56° C | 94% | 1007.1 hPa | - | 4.92 m/s, 180° | - | - |
| 1777998804 | 20.56° C | 88% | 1007.8 hPa | - | 4.47 m/s, 190° | - | - |
| 1777998208 | 20.56° C | 88% | 1007.8 hPa | - | 4.47 m/s, 190° | - | - |
| 1777997605 | 20° C | 93% | 1007.5 hPa | - | 3.58 m/s, 180° | - | - |
| 1777997012 | 20° C | 93% | 1007.5 hPa | - | 3.58 m/s, 180° | - | - |
| 1777996408 | 20° C | 93% | 1007.8 hPa | - | 4.02 m/s, 190° | - | - |
| 1777995925 | 20° C | 93% | 1007.8 hPa | - | 4.02 m/s, 190° | - | - |
| 1777995204 | 20° C | 93% | 1007.8 hPa | - | 3.58 m/s, 180° | - | - |
| 1777994606 | 20° C | 93% | 1007.8 hPa | - | 3.58 m/s, 180° | - | - |
| 1777994005 | 20° C | 93% | 1007.8 hPa | - | 2.24 m/s, 180° | - | - |
| 1777993403 | 20° C | 93% | 1007.8 hPa | - | 2.24 m/s, 180° | - | - |
* Rain since midnight (hover to see other rain measurements)
** Current wind speed in m/s (hover to see current wind gust speed)